LTBY

Eskişehir Anadolu Airport

Airport
ICAO code
LTBY
IATA Code
AOE
Summary
ICAO Region
EUR
ICAO Territory
Location

Eskişehir,

Serving
Eskişehir
Elevation
2588 ft
Coordinates
39° 48' 35" N , 30° 31' 10" E
Metar
LTBY 201550Z 24015KT 200V270 9999 SCT035 SCT100 12/04 Q1005

Runways

Designator Length Width Surface Rops
9/27 2518 30 ASP No/No

Airport map

Aerial View

SKYbrary Partners:

Safety knowledge contributed by: